Skip Navigation Links Skip Navigation Links

Current Weather

Phoenix Sky Harbor Intl, Phoenix, Ariz.

For information only: do not use for flight planning or navigation.
Latest weather
Observation time Friday, February 21, 2020 12:51 AM MST
Local time Friday, February 21, 2020 1:23 AM MST
Flight conditions Visual Meteorological Conditions
Winds
Wind direction East (80°)
Wind speed 6 mph
Visibility 10 mi.
Sky condition
Ceiling 19,000 ft. broken clouds
Cloud layer few clouds 17,000 ft.
Cloud layer broken clouds 19,000 ft.
Cloud layer broken clouds 24,000 ft.
Temperature 66°F
Dewpoint 37°F
Altimeter 30.06 in.Hg
Derived measurements
Relative humidity 34%
Density altitude 1548 ft.
Sea-level pressure 30.02 in.Hg
Remarks
Automated weather observing station with precipitation discriminator.
METAR KPHX 210751Z 08005KT 10SM FEW170 BKN190 BKN240 19/03 A3006 RMK AO2 SLP165 T01890028

Settings

Location code

InnerDrive.Weather 4.0.6770.0 Release CLR 4.0.30319.42000
Copyright ©2018 Inner Drive Technology. All rights reserved. Portions Copyright ©1986-2018 David Braverman.

Find weather

Site navigation


Skip Navigation Links

Place info

Page info

PayPal - The safer, easier way to pay online!

Return home.

Copyright ©2020 Inner Drive Technology. Purveyors of fine, hand-crafted computer software. Page printed 2020-02-21T08:23:04 UTC.